Time;durP1;ratioP1;P1;durP2;ratioP2;P2;SDS_P1;SDS_P2;PMS_P1;PMS_P2;Temp;Humidity;BMP_temperature;BMP_pressure;BME280_temperature;BME280_humidity;BME280_pressure;Samples;Min_cycle;Max_cycle;Signal;HPM_P1;HPM_P2
2021/11/15 00:01:51;;;;;;;36.22;18.50;;;11.50;99.90;;;;;;5029732;28;20045;-86
2021/11/15 00:04:20;;;;;;;33.53;15.07;;;11.50;99.90;;;;;;5055195;28;20048;-86
2021/11/15 00:06:48;;;;;;;31.58;15.57;;;11.50;99.90;;;;;;5042937;28;20041;-85
2021/11/15 00:09:16;;;;;;;43.42;16.58;;;11.60;99.90;;;;;;5028092;28;20041;-85
2021/11/15 00:11:44;;;;;;;31.52;14.73;;;11.60;99.90;;;;;;5047289;28;20402;-85
2021/11/15 00:14:11;;;;;;;33.50;16.27;;;11.60;99.90;;;;;;5052164;28;20045;-86
2021/11/15 00:16:39;;;;;;;32.75;16.02;;;11.60;99.90;;;;;;5035327;28;20369;-85
2021/11/15 00:19:07;;;;;;;31.50;16.23;;;11.60;99.90;;;;;;5019189;28;20049;-86
2021/11/15 00:21:35;;;;;;;29.83;16.67;;;11.60;99.90;;;;;;5022686;28;20041;-84
2021/11/15 00:24:04;;;;;;;36.90;16.10;;;11.60;99.90;;;;;;5019508;28;20056;-85
2021/11/15 00:26:34;;;;;;;32.00;16.17;;;11.60;99.90;;;;;;4671100;28;10000203;-83
2021/11/15 00:29:04;;;;;;;28.95;15.38;;;11.60;99.90;;;;;;5021104;28;20061;-83
2021/11/15 00:31:31;;;;;;;29.73;15.13;;;11.60;99.90;;;;;;5040897;28;20056;-84
2021/11/15 00:34:01;;;;;;;36.05;16.40;;;11.60;99.90;;;;;;5007229;28;20049;-85
2021/11/15 00:36:32;;;;;;;;;;;11.60;99.90;;;;;;5014696;28;20052;-84
2021/11/15 00:38:59;;;;;;;36.92;14.35;;;11.60;99.90;;;;;;5029525;28;19936;-85
2021/11/15 00:41:27;;;;;;;29.85;14.00;;;11.60;99.90;;;;;;5030584;28;20053;-84
2021/11/15 00:43:55;;;;;;;32.28;13.75;;;11.60;99.90;;;;;;5047231;28;20041;-84
2021/11/15 00:46:23;;;;;;;29.67;13.95;;;11.60;99.90;;;;;;5045305;28;20059;-83
2021/11/15 00:48:55;;;;;;;27.35;12.95;;;11.60;99.90;;;;;;5027787;28;20476;-83
2021/11/15 00:51:25;;;;;;;28.60;14.55;;;11.60;99.90;;;;;;5030787;28;20511;-83
2021/11/15 00:53:54;;;;;;;26.48;12.95;;;11.60;99.90;;;;;;5029032;28;20064;-86
2021/11/15 00:56:21;;;;;;;28.65;14.35;;;11.60;99.90;;;;;;5012790;28;20476;-84
2021/11/15 00:58:53;;;;;;;31.50;14.63;;;11.60;99.90;;;;;;5048459;28;20052;-83
2021/11/15 01:01:22;;;;;;;30.83;13.52;;;11.70;99.90;;;;;;5023278;28;20426;-83
2021/11/15 01:03:50;;;;;;;33.00;14.20;;;11.60;99.90;;;;;;5025267;28;20052;-85
2021/11/15 01:06:18;;;;;;;31.67;15.48;;;11.60;99.90;;;;;;5059974;28;20048;-85
2021/11/15 01:08:46;;;;;;;32.30;13.85;;;11.60;99.90;;;;;;5066580;28;20053;-84
2021/11/15 01:11:14;;;;;;;32.20;15.32;;;11.60;99.90;;;;;;5049309;28;20056;-84
2021/11/15 01:13:42;;;;;;;30.45;14.25;;;11.60;99.90;;;;;;5048709;28;20044;-85
2021/11/15 01:16:10;;;;;;;29.08;14.60;;;11.60;99.90;;;;;;5029671;28;20049;-85
2021/11/15 01:18:43;;;;;;;25.30;13.23;;;11.60;99.90;;;;;;5046994;28;20045;-84
2021/11/15 01:21:12;;;;;;;29.60;14.38;;;11.60;99.90;;;;;;5047401;28;20067;-85
2021/11/15 01:23:40;;;;;;;31.15;14.45;;;11.60;99.90;;;;;;5035585;28;20036;-84
2021/11/15 01:26:09;;;;;;;31.02;15.52;;;11.60;99.90;;;;;;5066504;28;20056;-83
2021/11/15 01:28:37;;;;;;;31.58;14.45;;;11.60;99.90;;;;;;5049474;28;20033;-84
2021/11/15 01:31:05;;;;;;;28.10;13.93;;;11.50;99.90;;;;;;5049883;28;20422;-84
2021/11/15 01:33:33;;;;;;;32.15;15.10;;;11.50;99.90;;;;;;5060775;28;20838;-84
2021/11/15 01:36:01;;;;;;;32.03;14.25;;;11.60;99.90;;;;;;5046865;28;20049;-85
2021/11/15 01:38:28;;;;;;;30.90;14.95;;;11.60;99.90;;;;;;5061863;28;20048;-85
2021/11/15 01:40:56;;;;;;;25.00;13.68;;;11.60;99.90;;;;;;5059919;28;20518;-84
2021/11/15 01:43:24;;;;;;;36.05;15.27;;;11.60;99.90;;;;;;5062299;28;20048;-84
2021/11/15 01:45:52;;;;;;;26.90;12.77;;;11.50;99.90;;;;;;5044808;28;20049;-86
2021/11/15 01:48:20;;;;;;;26.85;12.90;;;11.60;99.90;;;;;;5052077;28;20052;-85
2021/11/15 01:50:49;;;;;;;26.40;11.90;;;11.60;99.90;;;;;;5052270;28;20045;-85
2021/11/15 01:53:16;;;;;;;29.45;12.23;;;11.60;99.90;;;;;;5065087;28;20040;-84
2021/11/15 01:55:45;;;;;;;28.80;12.75;;;11.60;99.90;;;;;;5063862;28;20049;-84
2021/11/15 01:58:15;;;;;;;25.45;12.90;;;11.60;99.90;;;;;;5046322;28;20049;-85
2021/11/15 02:00:53;;;;;;;29.27;12.18;;;11.60;99.90;;;;;;5064097;28;20049;-85
2021/11/15 02:03:22;;;;;;;26.15;13.32;;;11.60;99.90;;;;;;5059732;28;20057;-85
2021/11/15 02:05:50;;;;;;;27.00;11.82;;;11.60;99.90;;;;;;5045118;28;20322;-85
2021/11/15 02:08:18;;;;;;;23.90;12.25;;;11.60;99.90;;;;;;5051837;28;20044;-85
2021/11/15 02:10:47;;;;;;;24.88;12.80;;;11.60;99.90;;;;;;5055883;28;20052;-84
2021/11/15 02:13:19;;;;;;;24.52;12.15;;;11.60;99.90;;;;;;5071126;28;20119;-84
2021/11/15 02:15:49;;;;;;;26.25;12.27;;;11.60;99.90;;;;;;5045293;28;20036;-84
2021/11/15 02:18:18;;;;;;;25.70;10.93;;;11.60;99.90;;;;;;5034444;28;20040;-85
2021/11/15 02:20:49;;;;;;;27.60;13.98;;;12.30;99.90;;;;;;5061820;28;20051;-84
2021/11/15 02:23:18;;;;;;;22.98;11.15;;;11.60;99.90;;;;;;5034657;28;20051;-84
2021/11/15 02:25:48;;;;;;;23.67;11.10;;;11.60;99.90;;;;;;5046130;28;20056;-84
2021/11/15 02:28:17;;;;;;;28.63;13.30;;;11.60;99.90;;;;;;5050924;28;20068;-84
2021/11/15 02:30:45;;;;;;;23.52;10.43;;;11.60;99.90;;;;;;5068534;28;20051;-85
2021/11/15 02:33:13;;;;;;;23.65;11.88;;;11.60;99.90;;;;;;5051403;28;20111;-85
2021/11/15 02:35:41;;;;;;;27.13;13.23;;;11.60;99.90;;;;;;5056529;28;20059;-86
2021/11/15 02:38:08;;;;;;;26.88;11.98;;;11.60;99.90;;;;;;5031585;28;20119;-85
2021/11/15 02:40:37;;;;;;;23.13;12.18;;;11.60;99.90;;;;;;5048159;28;20044;-85
2021/11/15 02:43:05;;;;;;;27.00;12.90;;;11.60;99.90;;;;;;5049172;28;20044;-83
2021/11/15 02:45:34;;;;;;;22.88;11.85;;;11.60;99.90;;;;;;5048347;28;20500;-84
2021/11/15 02:48:02;;;;;;;27.73;12.32;;;11.60;99.90;;;;;;5039733;28;20492;-83
2021/11/15 02:50:33;;;;;;;22.75;10.98;;;11.60;99.90;;;;;;5011418;28;20053;-83
2021/11/15 02:53:06;;;;;;;23.38;10.95;;;11.50;99.90;;;;;;5042113;28;20056;-84
2021/11/15 02:55:36;;;;;;;23.65;12.73;;;12.50;99.90;;;;;;5045877;28;20056;-83
2021/11/15 02:58:06;;;;;;;25.77;11.35;;;11.50;99.90;;;;;;5031871;28;20493;-86
2021/11/15 03:01:07;;;;;;;26.63;12.33;;;11.60;99.90;;;;;;5033640;28;20502;-84
2021/11/15 03:03:35;;;;;;;31.27;12.57;;;11.50;99.90;;;;;;5041730;28;20052;-85
2021/11/15 03:06:04;;;;;;;26.55;13.18;;;11.50;99.90;;;;;;5030782;28;20049;-84
2021/11/15 03:08:32;;;;;;;26.92;11.93;;;11.50;99.90;;;;;;5047944;28;20057;-85
2021/11/15 03:11:02;;;;;;;26.98;12.35;;;11.50;99.90;;;;;;5048675;28;20045;-84
2021/11/15 03:13:39;;;;;;;24.05;11.43;;;11.50;99.90;;;;;;5065912;28;20055;-87
2021/11/15 03:16:07;;;;;;;23.38;12.18;;;11.50;99.90;;;;;;5064765;28;20052;-85
2021/11/15 03:18:37;;;;;;;30.33;12.43;;;11.50;99.90;;;;;;5030005;28;20522;-83
2021/11/15 03:21:20;;;;;;;29.67;12.88;;;11.50;99.90;;;;;;5066959;28;20544;-84
2021/11/15 03:23:51;;;;;;;24.35;11.20;;;11.40;99.90;;;;;;5067062;28;20509;-84
2021/11/15 03:26:20;;;;;;;20.50;9.75;;;11.50;99.90;;;;;;5051359;28;20044;-85
2021/11/15 03:28:53;;;;;;;22.30;9.90;;;11.40;99.90;;;;;;5067742;28;20048;-84
2021/11/15 03:31:24;;;;;;;26.58;10.40;;;11.40;99.90;;;;;;5052023;28;20059;-84
2021/11/15 03:33:57;;;;;;;32.85;10.88;;;11.40;99.90;;;;;;5094572;28;20055;-86
2021/11/15 03:36:27;;;;;;;23.08;11.38;;;11.40;99.90;;;;;;5044504;28;20945;-84
2021/11/15 03:38:55;;;;;;;21.75;11.27;;;11.40;99.90;;;;;;5041735;28;20053;-84
2021/11/15 03:41:25;;;;;;;22.23;11.82;;;11.50;99.90;;;;;;5066277;28;20055;-85
2021/11/15 03:43:53;;;;;;;20.52;10.60;;;11.50;99.90;;;;;;5054106;28;20040;-84
2021/11/15 03:46:22;;;;;;;22.60;10.55;;;11.40;99.90;;;;;;5039570;28;20124;-85
2021/11/15 03:48:51;;;;;;;26.67;11.98;;;11.50;99.90;;;;;;5037561;28;20330;-84
2021/11/15 03:51:21;;;;;;;25.30;11.30;;;11.40;99.90;;;;;;5014572;28;20081;-85
2021/11/15 03:53:49;;;;;;;22.27;10.93;;;11.40;99.90;;;;;;5053557;28;20052;-83
2021/11/15 03:56:22;;;;;;;31.90;12.68;;;11.40;99.90;;;;;;5071765;28;20047;-85
2021/11/15 03:58:50;;;;;;;25.10;10.63;;;11.40;99.90;;;;;;5052684;28;20407;-84
2021/11/15 04:01:22;;;;;;;24.40;10.80;;;11.40;99.90;;;;;;5040331;28;20056;-84
2021/11/15 04:03:50;;;;;;;25.73;10.27;;;11.40;99.90;;;;;;5015943;28;20056;-84
2021/11/15 04:06:26;;;;;;;21.30;9.75;;;11.40;99.90;;;;;;5016705;28;20069;-84
2021/11/15 04:08:56;;;;;;;28.10;9.77;;;11.40;99.90;;;;;;5030133;28;20754;-84
2021/11/15 04:11:28;;;;;;;20.65;9.38;;;11.40;99.90;;;;;;5029148;28;20052;-85
2021/11/15 04:14:04;;;;;;;26.77;12.88;;;11.40;99.90;;;;;;5032336;28;20045;-83
2021/11/15 04:16:32;;;;;;;23.98;10.77;;;11.40;99.90;;;;;;5030974;28;20068;-84
2021/11/15 04:19:11;;;;;;;23.10;12.00;;;11.40;99.90;;;;;;5050017;28;20049;-85
2021/11/15 04:21:40;;;;;;;26.63;12.57;;;11.40;99.90;;;;;;5049456;28;20416;-84
2021/11/15 04:24:08;;;;;;;22.17;10.57;;;11.40;99.90;;;;;;5032246;28;20056;-84
2021/11/15 04:26:35;;;;;;;22.83;11.52;;;11.40;99.90;;;;;;5048880;28;20045;-83
2021/11/15 04:29:04;;;;;;;24.63;12.35;;;11.40;99.90;;;;;;5028853;28;20052;-84
2021/11/15 04:31:31;;;;;;;23.63;10.93;;;11.40;99.90;;;;;;5012882;28;20551;-85
2021/11/15 04:33:59;;;;;;;21.33;11.73;;;11.40;99.90;;;;;;5041586;28;20504;-83
2021/11/15 04:36:27;;;;;;;24.08;10.35;;;11.40;99.90;;;;;;5049865;28;20045;-85
2021/11/15 04:38:56;;;;;;;29.80;11.95;;;11.40;99.90;;;;;;5050834;28;20041;-87
2021/11/15 04:41:23;;;;;;;22.70;11.00;;;11.30;99.90;;;;;;5018534;28;20049;-84
2021/11/15 04:43:51;;;;;;;25.05;11.48;;;11.40;99.90;;;;;;5020563;28;20048;-87
2021/11/15 04:46:19;;;;;;;23.27;10.68;;;11.40;99.90;;;;;;5040306;28;20048;-84
2021/11/15 04:48:51;;;;;;;23.40;11.10;;;11.40;99.90;;;;;;5037028;28;20052;-84
2021/11/15 04:51:19;;;;;;;22.15;10.80;;;11.40;99.90;;;;;;5019772;28;20046;-85
2021/11/15 04:53:46;;;;;;;27.50;11.00;;;11.40;99.90;;;;;;5044820;28;20064;-83
2021/11/15 04:56:14;;;;;;;26.75;11.98;;;11.30;99.90;;;;;;5027284;28;20049;-87
2021/11/15 04:58:42;;;;;;;24.70;10.68;;;11.40;99.90;;;;;;5032270;28;20299;-85
2021/11/15 05:01:10;;;;;;;23.13;11.07;;;11.30;99.90;;;;;;5039786;28;20048;-85
2021/11/15 05:03:38;;;;;;;23.95;11.68;;;11.30;99.90;;;;;;5063375;28;20048;-86
2021/11/15 05:06:06;;;;;;;22.90;11.65;;;11.30;99.90;;;;;;5055794;28;20740;-87
2021/11/15 05:08:34;;;;;;;20.65;10.18;;;11.30;99.90;;;;;;5056999;28;20041;-85
2021/11/15 05:11:02;;;;;;;27.30;10.88;;;11.30;99.90;;;;;;5039270;28;20056;-85
2021/11/15 05:13:30;;;;;;;23.17;10.82;;;11.40;99.90;;;;;;5055421;28;20199;-85
2021/11/15 05:15:58;;;;;;;24.60;10.23;;;11.30;99.90;;;;;;5056651;28;20480;-84
2021/11/15 05:18:26;;;;;;;23.33;9.70;;;11.30;99.90;;;;;;5052235;28;20377;-85
2021/11/15 05:20:53;;;;;;;20.58;10.43;;;11.30;99.90;;;;;;5054139;28;20052;-85
2021/11/15 05:23:21;;;;;;;23.15;10.65;;;11.30;99.90;;;;;;5050549;28;20044;-83
2021/11/15 05:25:49;;;;;;;25.27;11.40;;;11.30;99.90;;;;;;5035511;28;20052;-84
2021/11/15 05:28:16;;;;;;;22.02;10.32;;;11.30;99.90;;;;;;5018436;28;20068;-86
2021/11/15 05:30:45;;;;;;;23.63;11.65;;;11.30;99.90;;;;;;5038184;28;20049;-86
2021/11/15 05:33:13;;;;;;;28.25;11.60;;;11.30;99.90;;;;;;5074480;28;20064;-85
2021/11/15 05:35:40;;;;;;;26.17;12.07;;;11.30;99.90;;;;;;5055104;28;20044;-85
2021/11/15 05:38:08;;;;;;;26.23;11.05;;;11.20;99.90;;;;;;5069877;28;20071;-84
2021/11/15 05:40:36;;;;;;;25.15;10.20;;;11.30;99.90;;;;;;5055070;28;20052;-87
2021/11/15 05:43:04;;;;;;;24.65;11.40;;;11.30;99.90;;;;;;5040915;28;20063;-88
2021/11/15 05:45:32;;;;;;;23.63;12.50;;;11.20;99.90;;;;;;5077190;28;20055;-87
2021/11/15 05:48:00;;;;;;;21.65;10.15;;;11.20;99.90;;;;;;5057349;28;20227;-87
2021/11/15 05:50:28;;;;;;;22.80;10.90;;;11.20;99.90;;;;;;5053243;28;20049;-88
2021/11/15 05:52:57;;;;;;;24.48;11.18;;;11.30;99.90;;;;;;5060728;28;20056;-86
2021/11/15 05:55:26;;;;;;;28.15;12.25;;;11.20;99.90;;;;;;5062330;28;20041;-87
2021/11/15 05:57:55;;;;;;;26.98;11.57;;;11.20;99.90;;;;;;5051295;28;20049;-86
2021/11/15 06:00:27;;;;;;;24.27;11.57;;;11.30;99.90;;;;;;5070855;28;20589;-86
2021/11/15 06:02:56;;;;;;;22.60;14.02;;;11.20;99.90;;;;;;4693254;28;9999924;-86
2021/11/15 06:05:25;;;;;;;22.63;11.65;;;11.20;99.90;;;;;;5050270;28;20044;-86
2021/11/15 06:07:54;;;;;;;27.63;12.18;;;11.30;99.90;;;;;;5063656;28;20044;-88
2021/11/15 06:10:23;;;;;;;28.90;12.57;;;11.20;99.90;;;;;;5074102;28;20060;-85
2021/11/15 06:12:51;;;;;;;31.80;12.73;;;11.20;99.90;;;;;;5058621;28;20072;-88
2021/11/15 06:15:21;;;;;;;23.20;10.68;;;11.20;99.90;;;;;;5076566;28;20045;-85
2021/11/15 06:17:50;;;;;;;27.95;11.27;;;11.20;99.90;;;;;;5056692;28;20399;-86
2021/11/15 06:20:19;;;;;;;25.00;11.82;;;11.20;99.90;;;;;;5053681;28;20044;-84
2021/11/15 06:22:47;;;;;;;37.72;13.13;;;11.20;99.90;;;;;;5056612;28;20051;-84
2021/11/15 06:25:16;;;;;;;24.38;11.95;;;11.20;99.90;;;;;;5041282;28;20041;-87
2021/11/15 06:27:45;;;;;;;25.45;13.93;;;11.20;99.90;;;;;;5032811;28;20068;-87
2021/11/15 06:30:16;;;;;;;24.20;10.85;;;11.20;99.90;;;;;;5053025;28;20494;-85
2021/11/15 06:32:45;;;;;;;21.60;10.07;;;11.20;99.90;;;;;;5050331;28;20059;-85
2021/11/15 06:35:13;;;;;;;24.65;10.98;;;11.20;99.90;;;;;;5053298;28;20041;-87
2021/11/15 06:37:43;;;;;;;23.92;11.27;;;11.20;99.90;;;;;;5050290;28;20056;-86
2021/11/15 06:40:12;;;;;;;29.50;11.43;;;11.20;99.90;;;;;;5054289;28;20571;-85
2021/11/15 06:42:40;;;;;;;28.60;11.95;;;11.20;99.90;;;;;;5052318;28;20048;-90
2021/11/15 06:45:10;;;;;;;23.08;12.90;;;11.20;99.90;;;;;;5070587;28;20048;-89
2021/11/15 06:47:38;;;;;;;24.42;12.13;;;11.20;99.90;;;;;;5066477;28;20036;-86
2021/11/15 06:50:09;;;;;;;27.77;13.35;;;11.10;99.90;;;;;;5051951;28;20064;-89
2021/11/15 06:52:37;;;;;;;24.50;12.93;;;11.20;99.90;;;;;;5068039;28;20049;-87
2021/11/15 06:55:07;;;;;;;25.27;12.75;;;11.20;99.90;;;;;;5051717;28;20037;-87
2021/11/15 06:57:35;;;;;;;26.27;11.38;;;11.10;99.90;;;;;;5048741;28;20047;-87
2021/11/15 07:00:05;;;;;;;26.88;11.45;;;11.10;99.90;;;;;;5063934;28;20059;-82
2021/11/15 07:02:37;;;;;;;27.53;12.60;;;11.10;99.90;;;;;;5065257;28;20055;-84
2021/11/15 07:05:56;;;;;;;25.38;11.65;;;11.20;99.90;;;;;;5056515;28;20044;-83
2021/11/15 07:08:26;;;;;;;23.98;11.50;;;11.20;99.90;;;;;;5057277;28;20051;-86
2021/11/15 07:10:54;;;;;;;32.45;12.63;;;11.10;99.90;;;;;;5050792;28;20048;-86
2021/11/15 07:13:22;;;;;;;31.25;11.00;;;11.10;99.90;;;;;;5068787;28;20064;-87
2021/11/15 07:15:50;;;;;;;27.63;11.35;;;11.10;99.90;;;;;;5034673;28;20060;-87
2021/11/15 07:18:18;;;;;;;25.38;9.85;;;11.10;99.90;;;;;;5028291;28;20052;-86
2021/11/15 07:20:47;;;;;;;24.95;11.70;;;11.10;99.90;;;;;;5031549;28;20107;-85
2021/11/15 07:23:15;;;;;;;25.95;11.98;;;11.10;99.90;;;;;;5058862;28;20047;-84
2021/11/15 07:25:43;;;;;;;24.55;11.13;;;11.10;99.90;;;;;;5080023;28;20192;-85
2021/11/15 07:28:10;;;;;;;26.20;11.32;;;11.10;99.90;;;;;;5063129;28;20075;-85
2021/11/15 07:30:38;;;;;;;27.63;11.88;;;11.20;99.90;;;;;;5076045;28;20032;-86
2021/11/15 07:33:06;;;;;;;23.58;11.20;;;11.10;99.90;;;;;;5065676;28;20423;-87
2021/11/15 07:35:34;;;;;;;22.67;12.02;;;11.10;99.90;;;;;;5046437;28;20052;-87
2021/11/15 07:38:02;;;;;;;23.50;9.98;;;11.10;99.90;;;;;;5051145;28;20044;-85
2021/11/15 07:40:34;;;;;;;26.30;10.93;;;11.10;99.90;;;;;;5067941;28;20052;-85
2021/11/15 07:43:04;;;;;;;27.40;11.75;;;11.10;99.90;;;;;;5007816;28;20499;-85
2021/11/15 07:45:32;;;;;;;28.15;12.15;;;11.10;99.90;;;;;;5066831;28;20044;-86
2021/11/15 07:47:59;;;;;;;22.63;11.30;;;11.00;99.90;;;;;;5062659;28;20059;-88
2021/11/15 07:50:27;;;;;;;27.42;14.00;;;11.00;99.90;;;;;;5068936;28;20041;-87
2021/11/15 07:52:55;;;;;;;25.05;11.48;;;11.00;99.90;;;;;;5020544;28;20052;-87
2021/11/15 07:55:23;;;;;;;28.13;11.77;;;11.10;99.90;;;;;;5045471;28;20040;-87
2021/11/15 07:57:51;;;;;;;23.30;11.27;;;11.10;99.90;;;;;;5046753;28;20075;-84
2021/11/15 08:00:23;;;;;;;29.42;12.50;;;11.10;99.90;;;;;;5050281;28;20049;-87
2021/11/15 08:02:52;;;;;;;35.13;11.38;;;11.10;99.90;;;;;;5063642;28;20056;-84
2021/11/15 08:05:25;;;;;;;31.27;12.13;;;11.10;99.90;;;;;;5061370;28;20515;-86
2021/11/15 08:07:53;;;;;;;27.30;11.75;;;11.10;99.90;;;;;;5068819;28;20411;-83
2021/11/15 08:10:24;;;;;;;;;;;11.20;99.90;;;;;;5052297;28;20052;-87
2021/11/15 08:12:54;;;;;;;23.08;10.85;;;11.20;99.90;;;;;;5049474;28;19943;-86
2021/11/15 08:15:27;;;;;;;24.80;12.15;;;11.20;99.90;;;;;;5049651;28;20040;-83
2021/11/15 08:18:05;;;;;;;21.42;10.52;;;11.20;99.90;;;;;;5064207;28;20056;-84
2021/11/15 08:20:36;;;;;;;35.63;10.77;;;11.20;99.90;;;;;;5064946;28;20500;-84
2021/11/15 08:23:06;;;;;;;;;;;11.30;99.90;;;;;;5068498;28;20056;-85
2021/11/15 08:25:44;;;;;;;30.42;11.35;;;11.20;99.90;;;;;;5059050;28;19931;-84
2021/11/15 08:28:12;;;;;;;24.38;11.30;;;11.30;99.90;;;;;;5032397;28;20049;-86
2021/11/15 08:30:40;;;;;;;25.80;12.57;;;11.30;99.90;;;;;;5028353;28;20045;-83
2021/11/15 08:33:09;;;;;;;21.90;10.80;;;11.50;99.90;;;;;;5070834;28;20571;-82
2021/11/15 08:35:37;;;;;;;29.05;12.23;;;11.30;99.90;;;;;;5072179;28;20120;-88
2021/11/15 08:38:46;;;;;;;24.60;12.35;;;11.40;99.90;;;;;;5031404;28;20045;-83
2021/11/15 08:41:18;;;;;;;19.75;10.25;;;11.40;99.90;;;;;;5054721;28;20044;-84
2021/11/15 08:43:55;;;;;;;20.98;10.45;;;11.40;99.90;;;;;;5024227;28;20047;-85
2021/11/15 08:46:28;;;;;;;22.48;10.18;;;11.40;99.90;;;;;;5071663;28;20412;-86
2021/11/15 08:49:07;;;;;;;27.02;10.95;;;11.50;99.90;;;;;;5036951;28;20049;-86
2021/11/15 08:51:40;;;;;;;26.55;12.73;;;11.50;99.90;;;;;;5046483;28;20580;-84
2021/11/15 08:54:14;;;;;;;26.58;11.98;;;11.50;99.90;;;;;;5059638;28;20041;-85
2021/11/15 08:56:48;;;;;;;33.38;14.05;;;11.60;99.90;;;;;;5067493;28;20058;-84
2021/11/15 08:59:37;;;;;;;24.75;11.77;;;11.50;99.90;;;;;;5067107;28;20051;-82
2021/11/15 09:02:08;;;;;;;32.97;14.05;;;11.60;99.90;;;;;;5070275;28;20044;-82
2021/11/15 09:04:37;;;;;;;24.27;10.70;;;11.60;99.90;;;;;;5038064;28;20140;-82
2021/11/15 09:07:05;;;;;;;25.00;12.02;;;11.60;99.90;;;;;;5043410;28;20400;-82
2021/11/15 09:09:36;;;;;;;28.00;13.25;;;11.60;99.90;;;;;;5069227;28;20052;-82
2021/11/15 09:12:10;;;;;;;23.13;11.63;;;11.60;99.90;;;;;;5049229;28;20048;-84
2021/11/15 09:14:42;;;;;;;24.55;11.82;;;11.60;99.90;;;;;;5032628;28;20242;-83
2021/11/15 09:17:09;;;;;;;24.00;10.82;;;11.60;99.90;;;;;;5047197;28;20045;-83
2021/11/15 09:19:38;;;;;;;21.83;9.90;;;11.60;99.90;;;;;;5054978;28;20043;-82
2021/11/15 09:22:06;;;;;;;21.33;12.10;;;11.60;99.90;;;;;;5056746;28;20526;-84
2021/11/15 09:24:35;;;;;;;24.45;12.07;;;11.60;99.90;;;;;;5061209;28;20045;-84
2021/11/15 09:27:04;;;;;;;25.35;13.38;;;11.60;99.90;;;;;;5054382;28;20041;-83
2021/11/15 09:29:32;;;;;;;23.83;12.80;;;11.60;99.90;;;;;;5031613;28;20052;-82
2021/11/15 09:32:00;;;;;;;25.05;12.70;;;11.70;99.90;;;;;;5061101;28;20365;-82
2021/11/15 09:34:28;;;;;;;29.50;13.50;;;11.50;99.90;;;;;;5066661;28;20368;-86
2021/11/15 09:36:56;;;;;;;25.58;13.00;;;11.70;99.90;;;;;;5071824;28;20040;-85
2021/11/15 09:39:24;;;;;;;26.67;13.30;;;11.60;99.90;;;;;;5069851;28;20040;-83
2021/11/15 09:41:52;;;;;;;28.65;12.27;;;11.70;99.90;;;;;;5054247;28;20056;-86
2021/11/15 09:44:21;;;;;;;24.00;12.77;;;11.70;99.90;;;;;;5055812;28;20052;-83
2021/11/15 09:46:49;;;;;;;28.88;14.60;;;11.70;99.90;;;;;;5058686;28;20518;-82
2021/11/15 09:49:17;;;;;;;24.83;11.75;;;11.70;99.90;;;;;;5052346;28;20053;-85
2021/11/15 09:51:48;;;;;;;24.58;11.30;;;11.70;99.90;;;;;;5051311;28;20036;-83
2021/11/15 09:54:18;;;;;;;26.42;11.75;;;11.70;99.90;;;;;;5066426;28;20364;-82
2021/11/15 09:56:48;;;;;;;29.83;13.55;;;11.70;99.90;;;;;;5051170;28;20484;-83
2021/11/15 09:59:17;;;;;;;29.23;16.80;;;11.70;99.90;;;;;;5071801;28;20127;-83
2021/11/15 10:01:48;;;;;;;39.25;17.33;;;11.70;99.90;;;;;;5075914;28;20056;-84
2021/11/15 10:04:18;;;;;;;;;;;11.70;99.90;;;;;;5061062;28;20057;-85
2021/11/15 10:06:48;;;;;;;38.35;14.40;;;11.70;99.90;;;;;;5040933;28;19924;-81
2021/11/15 10:09:34;;;;;;;30.88;16.40;;;11.70;99.90;;;;;;5073245;28;20055;-84
2021/11/15 10:12:11;;;;;;;33.42;16.48;;;11.70;99.90;;;;;;5068393;28;20060;-86
2021/11/15 10:15:00;;;;;;;40.08;17.17;;;11.70;99.90;;;;;;5068754;28;20667;-84
2021/11/15 10:17:43;;;;;;;32.47;17.50;;;11.80;99.90;;;;;;5057302;28;20056;-84
2021/11/15 10:20:12;;;;;;;35.92;16.13;;;11.80;99.90;;;;;;5069004;28;20575;-82
2021/11/15 10:22:42;;;;;;;31.40;16.27;;;11.80;99.90;;;;;;5048289;28;20048;-86
2021/11/15 10:25:10;;;;;;;37.78;19.33;;;11.80;99.90;;;;;;5067511;28;20060;-85
2021/11/15 10:27:38;;;;;;;36.50;16.83;;;11.90;99.90;;;;;;5060094;28;20055;-82
2021/11/15 10:30:12;;;;;;;36.78;17.13;;;11.90;99.90;;;;;;5066582;28;20055;-82
2021/11/15 10:32:43;;;;;;;29.58;16.27;;;11.90;99.90;;;;;;5062647;28;20063;-82
2021/11/15 10:35:11;;;;;;;39.22;18.25;;;11.90;99.90;;;;;;5047258;28;20040;-84
2021/11/15 10:37:40;;;;;;;33.63;16.55;;;11.90;99.90;;;;;;5061555;28;20048;-83
2021/11/15 10:40:16;;;;;;;36.35;17.25;;;11.90;99.90;;;;;;5043134;28;20412;-82
2021/11/15 10:42:48;;;;;;;32.15;14.50;;;12.00;99.90;;;;;;5048026;28;20055;-82
2021/11/15 10:45:25;;;;;;;34.65;15.95;;;12.00;99.90;;;;;;5068087;28;20047;-84
2021/11/15 10:47:54;;;;;;;37.75;18.98;;;12.00;99.90;;;;;;5063566;28;20048;-84
2021/11/15 10:50:45;;;;;;;31.23;15.82;;;12.00;99.90;;;;;;5045064;28;20155;-84
2021/11/15 10:53:18;;;;;;;32.45;16.27;;;12.10;99.90;;;;;;5040248;28;20049;-84
2021/11/15 10:56:05;;;;;;;36.00;15.70;;;12.10;99.90;;;;;;5059722;28;20045;-84
2021/11/15 10:58:46;;;;;;;29.52;15.23;;;12.20;99.90;;;;;;5046952;28;20045;-81
2021/11/15 11:01:17;;;;;;;32.00;15.38;;;12.20;99.90;;;;;;5047720;28;20040;-85
2021/11/15 11:03:45;;;;;;;;;;;12.20;99.90;;;;;;5065648;28;20059;-86
2021/11/15 11:06:16;;;;;;;26.88;14.65;;;12.20;99.90;;;;;;5065546;28;19925;-84
2021/11/15 11:08:47;;;;;;;26.33;14.27;;;12.20;99.90;;;;;;5014079;28;20557;-83
2021/11/15 11:11:28;;;;;;;36.67;17.48;;;12.20;99.90;;;;;;5045645;28;20075;-86
2021/11/15 11:14:02;;;;;;;33.47;16.33;;;12.20;99.90;;;;;;5033322;28;20115;-84
2021/11/15 11:16:49;;;;;;;29.33;14.80;;;12.20;99.90;;;;;;5046294;28;20054;-82
2021/11/15 11:19:35;;;;;;;34.22;16.58;;;12.20;99.90;;;;;;5060753;28;20048;-84
2021/11/15 11:25:11;;;;;;;36.47;18.38;;;12.30;99.90;;;;;;5077873;28;20053;-85
2021/11/15 11:27:39;;;;;;;31.98;16.65;;;11.40;99.90;;;;;;4682633;28;10000129;-82
2021/11/15 11:30:09;;;;;;;29.43;16.03;;;12.30;99.90;;;;;;5063533;28;20045;-84
2021/11/15 11:32:37;;;;;;;29.60;15.13;;;12.30;99.90;;;;;;5044371;28;20298;-87
2021/11/15 11:35:05;;;;;;;39.83;18.02;;;12.30;99.90;;;;;;5045252;28;20395;-84
2021/11/15 11:37:34;;;;;;;37.80;18.48;;;12.30;99.90;;;;;;5047911;28;20395;-86
2021/11/15 11:40:04;;;;;;;41.63;17.63;;;12.30;99.90;;;;;;5046127;28;20044;-84
2021/11/15 11:42:33;;;;;;;34.05;17.13;;;12.30;99.90;;;;;;5016207;28;20068;-83
2021/11/15 11:45:06;;;;;;;36.60;17.33;;;12.30;99.90;;;;;;5038331;28;20048;-85
2021/11/15 11:47:34;;;;;;;33.15;16.73;;;12.30;99.90;;;;;;5037083;28;20045;-84
2021/11/15 11:50:04;;;;;;;29.58;15.73;;;12.30;99.90;;;;;;5051213;28;20056;-83
2021/11/15 11:52:39;;;;;;;29.55;15.65;;;12.40;99.90;;;;;;5047299;28;20052;-83
2021/11/15 11:55:19;;;;;;;30.50;14.07;;;12.40;99.90;;;;;;5027309;28;20052;-83
2021/11/15 11:57:47;;;;;;;35.30;15.80;;;12.40;99.90;;;;;;5065554;28;20049;-83
2021/11/15 12:00:16;;;;;;;38.22;16.08;;;12.40;99.90;;;;;;5065389;28;20779;-83
2021/11/15 12:02:45;;;;;;;34.38;16.83;;;12.40;99.90;;;;;;5046695;28;20052;-83
2021/11/15 12:05:18;;;;;;;47.53;17.50;;;12.40;99.90;;;;;;5067280;28;20048;-83
2021/11/15 12:07:58;;;;;;;45.38;17.90;;;12.40;99.90;;;;;;5049042;28;20052;-82
2021/11/15 12:10:57;;;;;;;35.22;17.75;;;12.40;99.90;;;;;;5053054;28;20483;-83
2021/11/15 12:13:25;;;;;;;36.17;16.92;;;12.40;99.90;;;;;;5074011;28;20048;-84
2021/11/15 12:16:00;;;;;;;37.75;18.17;;;12.40;99.90;;;;;;5049166;28;20360;-84
2021/11/15 12:18:35;;;;;;;34.88;17.02;;;12.40;99.90;;;;;;5070771;28;20043;-83
2021/11/15 12:21:05;;;;;;;29.08;13.90;;;12.40;99.90;;;;;;5070241;28;20041;-87
2021/11/15 12:23:40;;;;;;;31.63;15.57;;;12.40;99.90;;;;;;5070185;28;20045;-85
2021/11/15 12:26:24;;;;;;;28.80;14.38;;;12.40;99.90;;;;;;5071536;28;20051;-82
2021/11/15 12:29:02;;;;;;;29.95;13.98;;;12.40;99.90;;;;;;5054836;28;20052;-83
2021/11/15 12:31:52;;;;;;;32.63;15.48;;;12.40;99.90;;;;;;5052948;28;20040;-83
2021/11/15 12:34:27;;;;;;;33.88;16.02;;;12.40;99.90;;;;;;5069903;28;20040;-83
2021/11/15 12:36:57;;;;;;;30.48;16.02;;;12.40;99.90;;;;;;5052174;28;20033;-83
2021/11/15 12:39:41;;;;;;;32.95;15.05;;;12.50;99.90;;;;;;5058927;28;20055;-82
2021/11/15 12:42:28;;;;;;;30.50;15.68;;;12.40;99.90;;;;;;5067660;28;20510;-82
2021/11/15 12:45:16;;;;;;;30.17;15.85;;;12.40;99.90;;;;;;5064779;28;20060;-82
2021/11/15 12:47:47;;;;;;;31.88;13.93;;;12.40;99.90;;;;;;5051151;28;20526;-82
2021/11/15 12:50:21;;;;;;;29.30;13.07;;;12.40;99.90;;;;;;5070039;28;20390;-83